createdAt,value
2023-03-20T00:02:25.793Z,34.27
2023-03-20T00:04:54.306Z,34.38
2023-03-20T00:07:22.781Z,34.38
2023-03-20T00:09:51.250Z,34.35
2023-03-20T00:12:27.171Z,34.34
2023-03-20T00:14:55.742Z,34.31
2023-03-20T00:17:24.161Z,34.40
2023-03-20T00:19:52.626Z,34.42
2023-03-20T00:22:21.157Z,34.37
2023-03-20T00:24:49.734Z,34.41
2023-03-20T00:27:21.082Z,34.69
2023-03-20T00:29:49.550Z,34.49
2023-03-20T00:32:18.284Z,34.36
2023-03-20T00:34:46.984Z,34.31
2023-03-20T00:37:15.537Z,34.45
2023-03-20T00:39:43.981Z,34.43
2023-03-20T00:42:22.444Z,34.49
2023-03-20T00:44:54.499Z,34.37
2023-03-20T00:47:24.633Z,34.42
2023-03-20T00:49:55.962Z,34.36
2023-03-20T00:52:26.064Z,34.30
2023-03-20T00:54:54.746Z,34.24
2023-03-20T00:57:29.049Z,34.38
2023-03-20T01:00:05.344Z,34.20
2023-03-20T01:02:34.359Z,34.30
2023-03-20T01:05:03.839Z,34.09
2023-03-20T01:07:32.652Z,34.34
2023-03-20T01:10:01.235Z,34.22
2023-03-20T01:12:31.003Z,34.36
2023-03-20T01:15:00.574Z,34.31
2023-03-20T01:17:30.474Z,34.43
2023-03-20T01:19:58.908Z,34.45
2023-03-20T01:22:27.377Z,34.60
2023-03-20T01:24:55.856Z,34.81
2023-03-20T01:27:24.509Z,34.64
2023-03-20T01:29:54.324Z,34.62
2023-03-20T01:32:22.745Z,34.61
2023-03-20T01:34:51.409Z,34.70
2023-03-20T01:37:27.198Z,34.90
2023-03-20T01:39:57.274Z,34.72
2023-03-20T01:42:26.120Z,34.90
2023-03-20T01:44:55.991Z,34.94
2023-03-20T01:47:27.791Z,34.99
2023-03-20T01:50:32.140Z,35.13
2023-03-20T01:53:08.702Z,35.03
2023-03-20T01:55:39.564Z,35.05
2023-03-20T01:58:15.384Z,35.08
2023-03-20T02:00:46.370Z,35.14
2023-03-20T02:03:14.892Z,35.25
2023-03-20T02:05:44.877Z,35.30
2023-03-20T02:08:28.250Z,35.39
2023-03-20T02:10:58.521Z,35.32
2023-03-20T02:13:30.382Z,35.30
2023-03-20T02:16:08.506Z,35.44
2023-03-20T02:18:38.143Z,35.47
2023-03-20T02:21:55.100Z,35.56
2023-03-20T02:25:29.614Z,35.60
2023-03-20T02:28:58.748Z,35.77
2023-03-20T02:32:15.553Z,35.82
2023-03-20T02:35:28.961Z,35.81
2023-03-20T02:38:21.641Z,35.86
2023-03-20T02:41:00.134Z,35.96
2023-03-20T02:43:42.620Z,36.10
2023-03-20T02:46:22.584Z,36.20
2023-03-20T02:48:58.206Z,36.03
2023-03-20T02:51:37.888Z,36.34
2023-03-20T02:54:15.508Z,36.29
2023-03-20T02:56:57.434Z,36.28
2023-03-20T02:59:34.185Z,36.42
2023-03-20T03:02:09.817Z,36.50
2023-03-20T03:04:43.846Z,36.45
2023-03-20T03:07:16.141Z,36.92
2023-03-20T03:09:52.658Z,37.15
2023-03-20T03:12:25.174Z,36.83
2023-03-20T03:14:56.486Z,37.10
2023-03-20T03:17:29.008Z,37.46
2023-03-20T03:20:05.703Z,37.91
2023-03-20T03:22:36.364Z,38.10
2023-03-20T03:25:07.986Z,38.30
2023-03-20T03:27:42.229Z,38.38
2023-03-20T03:30:18.801Z,38.30
2023-03-20T03:32:52.536Z,38.17
2023-03-20T03:35:24.677Z,38.12
2023-03-20T03:38:02.378Z,38.20
2023-03-20T03:40:39.881Z,38.40
2023-03-20T03:43:15.330Z,38.37
2023-03-20T03:45:50.760Z,38.67
2023-03-20T03:48:24.704Z,38.55
2023-03-20T03:50:57.615Z,38.73
2023-03-20T03:53:33.048Z,39.05
2023-03-20T03:56:07.496Z,38.97
2023-03-20T03:58:42.988Z,39.31
2023-03-20T04:01:14.044Z,39.33
2023-03-20T04:03:50.210Z,39.63
2023-03-20T04:06:19.387Z,39.72
2023-03-20T04:08:47.806Z,39.77
2023-03-20T04:11:20.306Z,40.21
2023-03-20T04:13:51.491Z,40.32
2023-03-20T04:16:22.365Z,40.25
2023-03-20T04:18:51.542Z,40.44
2023-03-20T04:21:20.189Z,40.30
2023-03-20T04:23:48.617Z,40.66
2023-03-20T04:26:18.427Z,40.52
2023-03-20T04:28:46.916Z,40.46
2023-03-20T04:31:15.377Z,40.27
2023-03-20T04:33:43.839Z,40.36
2023-03-20T04:36:13.553Z,40.50
2023-03-20T04:38:42.609Z,40.62
2023-03-20T04:41:11.090Z,40.59
2023-03-20T04:43:41.470Z,40.52
2023-03-20T04:46:09.916Z,40.74
2023-03-20T04:48:38.326Z,40.78
2023-03-20T04:51:07.905Z,40.92
2023-03-20T04:53:36.789Z,40.94
2023-03-20T04:56:05.594Z,40.96
2023-03-20T04:58:35.974Z,41.06
2023-03-20T05:01:06.184Z,41.06
2023-03-20T05:03:35.354Z,40.96
2023-03-20T05:06:03.888Z,40.92
2023-03-20T05:08:32.433Z,41.04
2023-03-20T05:11:00.896Z,41.08
2023-03-20T05:13:29.301Z,41.24
2023-03-20T05:15:57.708Z,41.08
2023-03-20T05:18:27.537Z,41.28
2023-03-20T05:20:55.963Z,41.20
2023-03-20T05:23:24.340Z,41.30
2023-03-20T05:25:52.773Z,41.29
2023-03-20T05:28:21.168Z,41.29
2023-03-20T05:30:49.692Z,41.71
2023-03-20T05:33:18.184Z,41.77
2023-03-20T05:35:48.332Z,42.00
2023-03-20T05:38:16.773Z,42.26
2023-03-20T05:40:45.251Z,42.04
2023-03-20T05:43:13.660Z,42.06
2023-03-20T05:45:43.383Z,41.99
2023-03-20T05:48:11.960Z,41.88
2023-03-20T05:50:40.955Z,41.61
2023-03-20T05:53:11.012Z,41.68
2023-03-20T05:55:39.722Z,41.52
2023-03-20T05:58:08.283Z,41.33
2023-03-20T06:00:36.678Z,41.35
2023-03-20T06:03:06.883Z,41.12
2023-03-20T06:05:35.968Z,41.13
2023-03-20T06:08:05.717Z,40.91
2023-03-20T06:10:35.523Z,41.04
2023-03-20T06:13:04.004Z,40.76
2023-03-20T06:15:32.659Z,40.76
2023-03-20T06:18:01.364Z,40.76
2023-03-20T06:20:29.913Z,40.71
2023-03-20T06:22:58.423Z,40.70
2023-03-20T06:25:26.938Z,40.58
2023-03-20T06:27:57.832Z,40.58
2023-03-20T06:30:26.423Z,40.68
2023-03-20T06:32:54.881Z,40.84
2023-03-20T06:35:23.444Z,41.10
2023-03-20T06:37:51.961Z,41.17
2023-03-20T06:40:21.798Z,41.15
2023-03-20T06:42:50.408Z,41.54
2023-03-20T06:45:20.913Z,41.74
2023-03-20T06:47:49.391Z,41.73
2023-03-20T06:50:18.357Z,41.45
2023-03-20T06:52:47.522Z,41.19
2023-03-20T06:55:16.229Z,41.38
2023-03-20T06:57:44.656Z,41.19
2023-03-20T07:00:15.084Z,40.96
2023-03-20T07:02:45.138Z,41.00
2023-03-20T07:05:13.851Z,40.96
2023-03-20T07:07:42.342Z,40.76
2023-03-20T07:10:12.573Z,40.89
2023-03-20T07:12:41.098Z,40.69
2023-03-20T07:15:11.309Z,40.63
2023-03-20T07:17:39.820Z,40.58
2023-03-20T07:20:11.987Z,40.38
2023-03-20T07:22:41.572Z,40.17
2023-03-20T07:25:11.329Z,39.97
2023-03-20T07:27:39.796Z,39.99
2023-03-20T07:30:09.999Z,39.73
2023-03-20T07:32:38.684Z,39.51
2023-03-20T07:35:10.440Z,39.35
2023-03-20T07:37:39.191Z,39.23
2023-03-20T07:40:09.623Z,39.19
2023-03-20T07:42:38.154Z,38.82
2023-03-20T07:45:09.403Z,38.71
2023-03-20T07:47:38.331Z,38.60
2023-03-20T07:50:09.753Z,38.48
2023-03-20T07:52:38.378Z,38.21
2023-03-20T07:55:07.797Z,37.68
2023-03-20T07:57:36.246Z,37.69
2023-03-20T08:00:07.306Z,37.41
2023-03-20T08:02:35.834Z,36.87
2023-03-20T08:05:04.681Z,36.46
2023-03-20T08:07:35.292Z,36.07
2023-03-20T08:10:04.694Z,35.98
2023-03-20T08:12:33.236Z,36.15
2023-03-20T08:15:01.711Z,36.00
2023-03-20T08:17:30.133Z,35.98
2023-03-20T08:19:58.714Z,35.99
2023-03-20T08:22:27.229Z,35.75
2023-03-20T08:24:57.017Z,35.76
2023-03-20T08:27:25.615Z,35.36
2023-03-20T08:29:54.129Z,35.23
2023-03-20T08:32:22.644Z,35.07
2023-03-20T08:34:51.256Z,35.09
2023-03-20T08:37:20.610Z,34.82
2023-03-20T08:39:49.371Z,35.03
2023-03-20T08:42:19.211Z,34.74
2023-03-20T08:44:48.267Z,34.81
2023-03-20T08:47:16.771Z,34.33
2023-03-20T08:49:45.255Z,34.79
2023-03-20T08:52:13.684Z,34.41
2023-03-20T08:54:42.174Z,34.30
2023-03-20T08:57:10.682Z,34.40
2023-03-20T08:59:40.502Z,34.63
2023-03-20T09:02:12.062Z,34.59
2023-03-20T09:04:40.935Z,34.68
2023-03-20T09:07:09.528Z,34.66
2023-03-20T09:09:37.996Z,34.15
2023-03-20T09:12:07.462Z,34.24
2023-03-20T09:14:36.520Z,34.11
2023-03-20T09:17:06.966Z,34.04
2023-03-20T09:19:37.944Z,34.11
2023-03-20T09:22:06.484Z,34.30
2023-03-20T09:24:35.516Z,34.11
2023-03-20T09:27:04.015Z,33.66
2023-03-20T09:29:32.626Z,33.20
2023-03-20T09:32:01.195Z,32.97
2023-03-20T09:34:31.034Z,32.92
2023-03-20T09:36:59.531Z,32.62
2023-03-20T09:39:28.107Z,32.97
2023-03-20T09:41:57.918Z,33.15
2023-03-20T09:44:47.279Z,32.98
2023-03-20T09:47:24.136Z,32.89
2023-03-20T09:50:07.937Z,32.98
2023-03-20T09:52:42.110Z,32.84
2023-03-20T09:55:17.583Z,32.29
2023-03-20T09:57:51.761Z,32.09
2023-03-20T10:00:24.698Z,32.51
2023-03-20T10:02:59.441Z,32.33
2023-03-20T10:05:33.040Z,32.25
2023-03-20T10:08:04.355Z,32.11
2023-03-20T10:10:46.749Z,32.31
2023-03-20T10:13:41.156Z,31.05
2023-03-20T10:16:20.861Z,31.23
2023-03-20T10:19:03.166Z,30.80
2023-03-20T10:21:43.783Z,31.00
2023-03-20T10:24:20.731Z,31.53
2023-03-20T10:26:54.963Z,31.26
2023-03-20T10:29:34.903Z,31.36
2023-03-20T10:32:12.474Z,31.16
2023-03-20T10:34:54.524Z,30.91
2023-03-20T10:37:45.840Z,30.74
2023-03-20T10:40:31.970Z,30.68
2023-03-20T10:43:03.910Z,30.25
2023-03-20T10:45:39.957Z,30.12
2023-03-20T10:48:18.303Z,30.43
2023-03-20T10:50:52.758Z,29.89
2023-03-20T10:53:31.367Z,29.76
2023-03-20T10:56:04.775Z,29.11
2023-03-20T10:58:40.788Z,29.28
2023-03-20T11:01:09.972Z,28.92
2023-03-20T11:03:39.986Z,28.74
2023-03-20T11:06:18.946Z,28.76
2023-03-20T11:08:52.183Z,28.75
2023-03-20T11:11:28.111Z,28.41
2023-03-20T11:13:57.258Z,28.20
2023-03-20T11:16:33.073Z,28.00
2023-03-20T11:19:09.578Z,27.95
2023-03-20T11:21:48.647Z,27.74
2023-03-20T11:24:35.324Z,27.33
2023-03-20T11:27:08.624Z,27.49
2023-03-20T11:29:37.524Z,27.89
2023-03-20T11:32:17.222Z,27.55
2023-03-20T11:34:46.097Z,27.64
2023-03-20T11:37:26.037Z,27.39
2023-03-20T11:40:15.275Z,27.66
2023-03-20T11:42:55.145Z,27.46
2023-03-20T11:45:23.987Z,27.34
2023-03-20T11:47:55.283Z,26.96
2023-03-20T11:50:32.441Z,27.04
2023-03-20T11:53:01.971Z,27.21
2023-03-20T11:55:33.941Z,27.06
2023-03-20T11:58:05.921Z,26.88
2023-03-20T12:00:39.813Z,26.23
2023-03-20T12:03:55.515Z,26.87
2023-03-20T12:06:28.007Z,26.58
2023-03-20T12:09:00.220Z,26.02
2023-03-20T12:11:46.625Z,25.16
2023-03-20T12:14:25.914Z,24.59
2023-03-20T12:17:06.599Z,24.36
2023-03-20T12:19:36.587Z,23.89
2023-03-20T12:22:19.781Z,22.63
2023-03-20T12:24:56.280Z,23.18
2023-03-20T12:27:34.861Z,23.44
2023-03-20T12:30:11.680Z,23.80
2023-03-20T12:32:47.326Z,24.11
2023-03-20T12:35:21.810Z,24.12
2023-03-20T12:37:51.221Z,23.65
2023-03-20T12:40:27.812Z,24.26
2023-03-20T12:43:12.193Z,24.71
2023-03-20T12:45:47.039Z,24.44
2023-03-20T12:48:47.364Z,25.17
2023-03-20T12:51:25.059Z,24.48
2023-03-20T12:54:09.343Z,22.35
2023-03-20T12:57:00.319Z,22.66
2023-03-20T12:59:42.926Z,22.44
2023-03-20T13:02:31.395Z,22.34
2023-03-20T13:05:16.630Z,22.45
2023-03-20T13:08:04.435Z,22.88
2023-03-20T13:10:39.138Z,23.15
2023-03-20T13:13:21.642Z,23.70
2023-03-20T13:16:06.207Z,23.71
2023-03-20T13:18:50.287Z,23.46
2023-03-20T13:21:28.631Z,23.60
2023-03-20T13:24:13.014Z,23.62
2023-03-20T13:26:49.848Z,22.83
2023-03-20T13:29:27.934Z,22.83
2023-03-20T13:32:14.969Z,22.93
2023-03-20T13:35:12.619Z,23.45
2023-03-20T13:37:44.994Z,23.13
2023-03-20T13:40:21.986Z,23.59
2023-03-20T13:42:56.561Z,24.09
2023-03-20T13:45:36.259Z,24.09
2023-03-20T13:48:25.467Z,24.67
2023-03-20T13:51:02.240Z,24.85
2023-03-20T13:53:39.519Z,25.14
2023-03-20T13:56:21.652Z,25.56
2023-03-20T13:59:11.529Z,25.77
2023-03-20T14:01:51.426Z,26.16
2023-03-20T14:04:25.906Z,26.15
2023-03-20T14:06:56.946Z,26.10
2023-03-20T14:09:43.159Z,26.22
2023-03-20T14:12:14.293Z,26.35
2023-03-20T14:14:47.656Z,26.25
2023-03-20T14:17:21.098Z,26.18
2023-03-20T14:19:52.140Z,26.39
2023-03-20T14:22:24.124Z,26.57
2023-03-20T14:24:58.536Z,26.66
2023-03-20T14:27:44.022Z,26.78
2023-03-20T14:30:45.947Z,26.91
2023-03-20T14:33:31.443Z,26.91
2023-03-20T14:36:27.615Z,27.18
2023-03-20T14:39:12.162Z,27.36
2023-03-20T14:42:01.442Z,27.54
2023-03-20T14:44:50.765Z,27.53
2023-03-20T14:47:31.795Z,27.64
2023-03-20T14:50:11.304Z,27.57
2023-03-20T14:52:56.754Z,27.79
2023-03-20T14:55:52.645Z,27.74
2023-03-20T14:58:54.517Z,27.60
2023-03-20T15:01:47.516Z,27.62
2023-03-20T15:04:39.117Z,27.44
2023-03-20T15:07:15.817Z,27.62
2023-03-20T15:09:48.758Z,27.61
2023-03-20T15:12:21.854Z,27.44
2023-03-20T15:14:56.849Z,27.60
2023-03-20T15:17:29.387Z,27.69
2023-03-20T15:20:04.587Z,27.67
2023-03-20T15:22:33.069Z,27.72
2023-03-20T15:25:02.923Z,27.74
2023-03-20T15:27:32.323Z,27.71
2023-03-20T15:30:03.619Z,27.96
2023-03-20T15:32:33.952Z,27.85
2023-03-20T15:35:05.347Z,28.06
2023-03-20T15:37:36.162Z,27.66
2023-03-20T15:40:14.360Z,27.55
2023-03-20T15:42:42.857Z,27.73
2023-03-20T15:45:27.347Z,27.78
2023-03-20T15:48:02.745Z,28.00
2023-03-20T15:50:35.588Z,28.12
2023-03-20T15:53:05.456Z,27.86
2023-03-20T15:55:36.710Z,28.05
2023-03-20T15:58:06.621Z,28.55
2023-03-20T16:00:40.875Z,28.47
2023-03-20T16:03:20.224Z,28.41
2023-03-20T16:05:51.479Z,28.74
2023-03-20T16:08:27.115Z,29.03
2023-03-20T16:11:01.365Z,28.88
2023-03-20T16:13:39.017Z,29.56
2023-03-20T16:16:12.484Z,29.54
2023-03-20T16:18:42.111Z,29.71
2023-03-20T16:21:18.378Z,30.43
2023-03-20T16:23:50.149Z,30.70
2023-03-20T16:26:23.070Z,30.49
2023-03-20T16:28:53.760Z,31.14
2023-03-20T16:31:28.549Z,31.05
2023-03-20T16:34:01.155Z,31.34
2023-03-20T16:36:32.963Z,31.18
2023-03-20T16:39:10.808Z,31.66
2023-03-20T16:41:41.929Z,31.99
2023-03-20T16:44:17.087Z,32.12
2023-03-20T16:47:05.230Z,32.44
2023-03-20T16:50:19.178Z,32.68
2023-03-20T16:52:51.790Z,33.45
2023-03-20T16:55:27.741Z,33.26
2023-03-20T16:58:01.878Z,33.86
2023-03-20T17:00:33.467Z,33.64
2023-03-20T17:03:15.957Z,33.76
2023-03-20T17:05:54.796Z,33.96
2023-03-20T17:08:35.599Z,34.28
2023-03-20T17:11:12.726Z,34.15
2023-03-20T17:13:44.449Z,35.12
2023-03-20T17:16:19.970Z,35.12
2023-03-20T17:18:59.482Z,34.81
2023-03-20T17:21:28.530Z,34.72
2023-03-20T17:23:57.424Z,34.77
2023-03-20T17:26:26.450Z,34.64
2023-03-20T17:28:57.144Z,34.70
2023-03-20T17:31:25.864Z,35.02
2023-03-20T17:33:55.106Z,35.09
2023-03-20T17:36:28.158Z,35.46
2023-03-20T17:38:58.573Z,35.25
2023-03-20T17:41:28.870Z,35.63
2023-03-20T17:43:58.960Z,35.67
2023-03-20T17:46:31.559Z,36.07
2023-03-20T17:49:04.515Z,36.18
2023-03-20T17:51:34.777Z,36.22
2023-03-20T17:54:04.021Z,36.26
2023-03-20T17:56:34.114Z,36.40
2023-03-20T17:59:06.692Z,36.16
2023-03-20T18:01:35.993Z,36.64
2023-03-20T18:04:04.516Z,36.45
2023-03-20T18:06:38.081Z,36.89
2023-03-20T18:09:12.731Z,37.00
2023-03-20T18:11:41.679Z,36.85
2023-03-20T18:14:18.180Z,37.05
2023-03-20T18:16:48.936Z,37.24
2023-03-20T18:19:30.994Z,36.91
2023-03-20T18:22:01.688Z,36.92
2023-03-20T18:24:32.030Z,37.22
2023-03-20T18:27:01.967Z,37.34
2023-03-20T18:29:32.689Z,37.25
2023-03-20T18:32:03.375Z,37.71
2023-03-20T18:34:34.395Z,37.41
2023-03-20T18:37:08.133Z,37.29
2023-03-20T18:39:38.025Z,37.40
2023-03-20T18:42:12.451Z,37.14
2023-03-20T18:44:44.230Z,37.30
2023-03-20T18:47:13.984Z,37.14
2023-03-20T18:49:44.544Z,36.97
2023-03-20T18:52:15.041Z,36.97
2023-03-20T18:54:45.327Z,36.85
2023-03-20T18:57:16.148Z,36.91
2023-03-20T18:59:49.855Z,36.96
2023-03-20T19:02:21.076Z,36.83
2023-03-20T19:04:53.397Z,36.93
2023-03-20T19:07:25.660Z,36.84
2023-03-20T19:09:58.591Z,36.78
2023-03-20T19:12:30.277Z,36.90
2023-03-20T19:15:05.358Z,36.89
2023-03-20T19:17:35.753Z,36.92
2023-03-20T19:20:11.059Z,37.25
2023-03-20T19:22:41.431Z,37.08
2023-03-20T19:25:13.021Z,37.03
2023-03-20T19:27:43.989Z,36.97
2023-03-20T19:30:31.391Z,37.11
2023-03-20T19:33:02.509Z,37.03
2023-03-20T19:36:01.116Z,37.06
2023-03-20T19:38:26.173Z,37.36
2023-03-20T19:40:59.270Z,37.53
2023-03-20T19:43:30.262Z,37.50
2023-03-20T19:46:03.590Z,37.41
2023-03-20T19:48:47.097Z,37.38
2023-03-20T19:51:23.622Z,37.67
2023-03-20T19:53:54.708Z,37.56
2023-03-20T19:56:26.321Z,37.66
2023-03-20T19:58:56.855Z,37.42
2023-03-20T20:01:28.688Z,37.53
2023-03-20T20:03:59.601Z,37.52
2023-03-20T20:06:32.593Z,37.54
2023-03-20T20:09:03.819Z,37.62
2023-03-20T20:11:33.269Z,37.57
2023-03-20T20:14:08.527Z,37.69
2023-03-20T20:16:43.662Z,37.93
2023-03-20T20:19:20.688Z,37.87
2023-03-20T20:24:44.240Z,38.10
2023-03-20T20:27:17.188Z,38.04
2023-03-20T20:29:52.042Z,38.13
2023-03-20T20:32:26.805Z,38.30
2023-03-20T20:35:40.615Z,38.41
2023-03-20T20:38:36.772Z,38.15
2023-03-20T20:40:44.679Z,38.31
2023-03-20T20:43:39.241Z,38.25
2023-03-20T20:46:10.192Z,38.28
2023-03-20T20:48:44.077Z,38.14
2023-03-20T20:51:13.860Z,38.16
2023-03-20T20:53:43.503Z,38.44
2023-03-20T20:56:12.849Z,38.27
2023-03-20T20:58:42.149Z,38.26
2023-03-20T21:01:12.638Z,38.41
2023-03-20T21:03:44.345Z,38.24
2023-03-20T21:06:13.375Z,38.39
2023-03-20T21:08:42.496Z,38.38
2023-03-20T21:11:17.699Z,38.34
2023-03-20T21:13:47.285Z,38.35
2023-03-20T21:16:18.797Z,38.40
2023-03-20T21:18:50.291Z,38.59
2023-03-20T21:21:19.554Z,38.53
2023-03-20T21:23:48.868Z,38.54
2023-03-20T21:26:18.146Z,38.36
2023-03-20T21:28:47.071Z,38.64
2023-03-20T21:31:30.232Z,38.51
2023-03-20T21:34:01.229Z,38.49
2023-03-20T21:36:29.976Z,38.74
2023-03-20T21:39:07.878Z,38.83
2023-03-20T21:41:38.789Z,38.67
2023-03-20T21:44:08.037Z,38.77
2023-03-20T21:58:41.327Z,38.87
2023-03-20T22:04:26.930Z,39.19
2023-03-20T22:07:13.494Z,39.42
2023-03-20T22:12:48.629Z,39.54
2023-03-20T22:18:12.311Z,39.76
2023-03-20T22:21:22.492Z,39.96
2023-03-20T22:29:39.502Z,40.19
2023-03-20T22:35:22.868Z,40.14
2023-03-20T22:41:00.736Z,40.26
2023-03-20T22:46:07.734Z,40.36
2023-03-20T22:48:41.615Z,40.30
2023-03-20T22:51:10.746Z,40.23
2023-03-20T22:53:39.283Z,40.31
2023-03-20T22:56:11.913Z,40.44
2023-03-20T22:58:40.667Z,40.62
2023-03-20T23:01:11.420Z,40.50
2023-03-20T23:03:42.283Z,40.58
2023-03-20T23:06:18.759Z,40.72
2023-03-20T23:08:52.421Z,40.80
2023-03-20T23:11:25.219Z,40.81
2023-03-20T23:13:54.028Z,40.94
2023-03-20T23:16:22.548Z,40.81
2023-03-20T23:18:51.155Z,40.91
2023-03-20T23:21:20.810Z,41.05
2023-03-20T23:23:49.315Z,41.11
2023-03-20T23:26:21.161Z,41.30
2023-03-20T23:28:53.307Z,41.16
2023-03-20T23:31:23.877Z,41.37
2023-03-20T23:33:55.399Z,41.46
2023-03-20T23:36:35.919Z,41.61
2023-03-20T23:39:06.433Z,41.33
2023-03-20T23:42:27.781Z,41.41
2023-03-20T23:44:25.092Z,41.24
2023-03-20T23:46:54.722Z,41.40
2023-03-20T23:49:23.206Z,41.47
2023-03-20T23:51:51.701Z,41.32
2023-03-20T23:54:20.786Z,41.37
2023-03-20T23:56:49.265Z,41.37
2023-03-20T23:59:22.245Z,41.28
